Potomac Falls, Virginia
Current Conditions -  °F | °C
As of 2:52 PM on Wednesday 26 Nov 2014 (Local Time) from KIAD Reporting Station
Light Snow Light Snow  
Wind Chill: 24°   Ceiling: 500
Heat Index: 32°   Visibility: 0.5mi
Dew Point: 31°   Wind: 9mph
Humidity: 96%   Direction: 330°NNW
Pressure: 29.94"   Gusts: NA
Location:  39.0512°N, 77.4089°W
Report Text: KIAD 261952Z 33008KT 1/2SM R01R/4500V6000FT -SN BR OVC005 00/M01 A2994 RMK AO2 SFC VIS 1 1/2 SLP140 P0007 T00001006
Loading
Personal Weather Stations






























Interactive Weather Map New forecast layout! Learn more

10-Day Weather Forecast

Advertisements
Track Severe Weather on mobile